Time;durP1;ratioP1;P1;durP2;ratioP2;P2;SDS_P1;SDS_P2;PMS_P1;PMS_P2;Temp;Humidity;BMP_temperature;BMP_pressure;BME280_temperature;BME280_humidity;BME280_pressure;Samples;Min_cycle;Max_cycle;Signal;HPM_P1;HPM_P2
2022/03/16 00:00:11;;;;;;;333.98;60.58;;;7.80;99.90;;;6.75;98.75;98033.31;5025160;28;20407;-74
2022/03/16 00:02:37;;;;;;;333.23;55.13;;;7.80;99.90;;;6.72;98.78;98045.06;5030248;28;20928;-75
2022/03/16 00:05:04;;;;;;;296.77;48.60;;;7.80;99.90;;;6.72;98.55;98046.88;5013398;28;20503;-74
2022/03/16 00:07:31;;;;;;;294.02;49.85;;;7.80;99.90;;;6.73;98.83;98043.25;5009318;28;20510;-74
2022/03/16 00:09:57;;;;;;;292.75;48.10;;;7.80;99.90;;;6.73;98.78;98048.50;5026911;28;20819;-75
2022/03/16 00:12:23;;;;;;;307.52;48.28;;;7.80;99.90;;;6.73;98.78;98051.13;5013884;28;20408;-74
2022/03/16 00:14:49;;;;;;;314.85;51.05;;;7.80;99.90;;;6.75;98.82;98046.47;5013323;28;20416;-75
2022/03/16 00:17:16;;;;;;;295.60;49.58;;;7.80;99.90;;;6.74;98.74;98050.13;5031581;28;20468;-75
2022/03/16 00:19:43;;;;;;;304.83;52.15;;;7.80;99.90;;;6.74;98.85;98045.66;5021602;28;20415;-75
2022/03/16 00:22:10;;;;;;;348.35;57.15;;;7.80;99.90;;;6.74;98.79;98045.66;5012629;23;20439;-78
2022/03/16 00:24:37;;;;;;;323.08;55.40;;;7.80;99.90;;;6.71;98.94;98046.06;5007737;28;20421;-77
2022/03/16 00:27:04;;;;;;;335.90;56.20;;;7.80;99.90;;;6.71;98.81;98042.63;4992589;28;20414;-78
2022/03/16 00:29:30;;;;;;;325.02;52.35;;;7.80;99.90;;;6.71;98.85;98043.44;5004210;28;20421;-78
2022/03/16 00:31:57;;;;;;;305.15;52.15;;;7.80;99.90;;;6.73;98.70;98043.25;5007410;28;20486;-78
2022/03/16 00:34:23;;;;;;;363.57;58.73;;;7.80;99.90;;;6.72;98.94;98046.88;4992693;28;20502;-78
2022/03/16 00:36:49;;;;;;;354.10;57.13;;;7.80;99.90;;;6.71;98.77;98046.06;5001913;28;20578;-77
2022/03/16 00:39:15;;;;;;;374.05;54.80;;;7.80;99.90;;;6.71;98.74;98048.69;4997508;28;20508;-78
2022/03/16 00:41:42;;;;;;;396.63;60.47;;;7.80;99.90;;;6.71;98.73;98037.38;4991943;28;20421;-78
2022/03/16 00:44:08;;;;;;;381.98;56.70;;;7.80;99.90;;;6.70;98.70;98035.75;4992488;28;20447;-78
2022/03/16 00:46:36;;;;;;;346.08;53.58;;;7.80;99.90;;;6.71;98.84;98042.63;4992639;28;20407;-78
2022/03/16 00:49:03;;;;;;;347.63;58.37;;;7.80;99.90;;;6.72;98.90;98049.50;5004867;28;20580;-79
2022/03/16 00:51:29;;;;;;;381.52;67.70;;;7.80;99.90;;;6.73;98.94;98045.88;5009110;28;20416;-78
2022/03/16 00:53:55;;;;;;;401.85;60.25;;;7.80;99.90;;;6.71;98.82;98035.56;4980153;28;20980;-77
2022/03/16 00:56:21;;;;;;;369.43;58.00;;;7.80;99.90;;;6.72;98.83;98039.00;5003266;28;20433;-78
2022/03/16 00:58:48;;;;;;;382.42;61.80;;;7.80;99.90;;;6.71;98.90;98032.91;4992048;28;20435;-78
2022/03/16 01:01:14;;;;;;;388.92;60.53;;;7.80;99.90;;;6.72;98.86;98033.72;4997335;28;20481;-78
2022/03/16 01:03:41;;;;;;;371.02;58.70;;;7.80;99.90;;;6.72;98.72;98033.72;5011015;28;20851;-78
2022/03/16 01:06:15;;;;;;;369.48;56.25;;;7.80;99.90;;;6.72;98.85;98039.81;4991686;28;20414;-78
2022/03/16 01:08:42;;;;;;;410.00;73.70;;;7.80;99.90;;;6.74;98.90;98034.34;4991775;28;25179;-77
2022/03/16 01:11:08;;;;;;;377.60;59.33;;;7.80;99.90;;;6.72;98.93;98031.91;4993418;28;20922;-79
2022/03/16 01:13:35;;;;;;;348.27;57.63;;;7.80;99.90;;;6.72;98.91;98031.91;5006619;28;20919;-78
2022/03/16 01:16:03;;;;;;;364.42;55.40;;;7.80;99.90;;;6.71;98.79;98026.84;4991664;28;20418;-78
2022/03/16 01:18:29;;;;;;;353.83;52.78;;;7.80;99.90;;;6.70;98.81;98031.31;4991514;28;20428;-78
2022/03/16 01:20:55;;;;;;;337.33;53.47;;;7.80;99.90;;;6.70;98.85;98028.66;4991247;28;20788;-78
2022/03/16 01:23:21;;;;;;;352.75;53.15;;;7.80;99.90;;;6.70;98.87;98027.84;5007597;28;20445;-79
2022/03/16 01:25:46;;;;;;;375.95;66.18;;;7.80;99.90;;;6.71;98.76;98029.47;5009946;28;20412;-78
2022/03/16 01:28:12;;;;;;;466.70;79.93;;;7.80;99.90;;;6.67;98.81;98028.31;5009592;28;20995;-79
2022/03/16 01:30:38;;;;;;;450.23;73.40;;;7.70;99.90;;;6.62;98.94;98018.38;5009922;28;20471;-78
2022/03/16 01:33:06;;;;;;;400.40;63.17;;;7.70;99.90;;;6.61;98.95;98029.94;5010699;28;20910;-78
2022/03/16 01:35:31;;;;;;;393.60;58.28;;;7.70;99.90;;;6.61;98.91;98022.06;5010909;28;20470;-79
2022/03/16 01:37:57;;;;;;;433.35;67.40;;;7.70;99.90;;;6.64;98.80;98020.81;5010810;28;20444;-78
2022/03/16 01:40:23;;;;;;;458.42;76.03;;;7.70;99.90;;;6.63;98.99;98025.28;5010337;28;20409;-78
2022/03/16 01:42:49;;;;;;;488.27;83.07;;;7.70;99.90;;;6.61;98.89;98025.47;5010334;28;20421;-78
2022/03/16 01:45:15;;;;;;;430.20;66.13;;;7.70;99.90;;;6.60;98.88;98025.69;5010819;28;20492;-77
2022/03/16 01:47:41;;;;;;;423.17;69.88;;;7.60;99.90;;;6.58;98.94;98033.00;5008425;28;20412;-77
2022/03/16 01:50:10;;;;;;;412.40;63.60;;;7.60;99.90;;;6.57;98.84;98042.69;4991075;28;20564;-77
2022/03/16 01:52:38;;;;;;;389.93;61.37;;;7.60;99.90;;;6.59;98.98;98031.97;5000559;28;20484;-80
2022/03/16 01:55:06;;;;;;;433.47;67.30;;;7.60;99.90;;;6.59;98.78;98024.09;4997427;28;20467;-79
2022/03/16 01:57:34;;;;;;;427.08;68.03;;;7.70;99.90;;;6.59;98.91;98029.34;4991029;28;20418;-79
2022/03/16 02:00:00;;;;;;;423.58;66.45;;;7.60;99.90;;;6.59;98.84;98037.25;4988636;28;20417;-78
2022/03/16 02:02:26;;;;;;;419.60;62.08;;;7.70;99.90;;;6.61;98.92;98035.22;4993230;28;20765;-78
2022/03/16 02:04:52;;;;;;;418.80;60.75;;;7.70;99.90;;;6.64;99.07;98031.34;4993174;28;20446;-78
2022/03/16 02:07:19;;;;;;;467.85;71.25;;;7.70;99.90;;;6.62;98.86;98023.66;4991051;28;20406;-78
2022/03/16 02:09:45;;;;;;;418.13;63.22;;;7.70;99.90;;;6.65;98.92;98030.31;4991209;28;20434;-78
2022/03/16 02:12:12;;;;;;;405.70;58.77;;;7.70;99.90;;;6.67;98.93;98028.31;5000075;28;20423;-78
2022/03/16 02:14:38;;;;;;;414.42;58.80;;;7.70;99.90;;;6.69;99.02;98029.69;5004858;28;20411;-78
2022/03/16 02:17:05;;;;;;;389.42;54.95;;;7.80;99.90;;;6.70;99.03;98026.03;4994864;28;20418;-78
2022/03/16 02:19:32;;;;;;;369.98;55.17;;;7.80;99.90;;;6.72;98.88;98031.91;4994622;28;20407;-77
2022/03/16 02:22:03;;;;;;;381.23;56.90;;;7.80;99.90;;;6.70;98.88;98020.78;4997876;28;20917;-78
2022/03/16 02:24:30;;;;;;;380.67;54.35;;;7.80;99.90;;;6.70;99.05;98030.50;5013404;28;20417;-78
2022/03/16 02:26:56;;;;;;;365.00;51.67;;;7.80;99.90;;;6.70;99.06;98030.50;5002274;28;20422;-78
2022/03/16 02:29:22;;;;;;;359.73;53.65;;;7.80;99.90;;;6.71;98.99;98022.41;4994525;28;20771;-78
2022/03/16 02:31:48;;;;;;;401.83;54.40;;;7.80;99.90;;;6.72;99.07;98025.84;4996491;28;20505;-78
2022/03/16 02:34:15;;;;;;;399.00;54.85;;;7.80;99.90;;;6.73;99.07;98025.63;5013776;28;20424;-79
2022/03/16 02:36:40;;;;;;;369.58;53.08;;;7.80;99.90;;;6.73;99.29;98024.81;5027387;28;20786;-78
2022/03/16 02:39:06;;;;;;;392.63;54.50;;;7.80;99.90;;;6.74;99.10;98023.81;5013317;28;20423;-78
2022/03/16 02:41:34;;;;;;;379.63;56.83;;;7.80;99.90;;;6.74;99.19;98029.88;4996984;28;20413;-78
2022/03/16 02:44:00;;;;;;;387.00;55.25;;;7.80;99.90;;;6.75;99.09;98028.06;5013432;28;20408;-78
2022/03/16 02:46:26;;;;;;;386.05;55.92;;;7.80;99.90;;;6.75;99.06;98033.31;5013409;28;20401;-78
2022/03/16 02:48:52;;;;;;;419.65;57.85;;;7.80;99.90;;;6.76;99.13;98040.19;5013170;28;20943;-78
2022/03/16 02:51:17;;;;;;;404.08;56.92;;;7.80;99.90;;;6.75;99.27;98031.50;5013224;28;20492;-79
2022/03/16 02:53:43;;;;;;;409.27;57.05;;;7.80;99.90;;;6.76;99.42;98034.94;5012909;28;20447;-79
2022/03/16 02:56:10;;;;;;;416.93;58.43;;;7.80;99.90;;;6.75;99.06;98039.38;5013535;28;20949;-79
2022/03/16 02:58:37;;;;;;;426.13;58.22;;;7.80;99.90;;;6.76;99.29;98034.94;5004708;28;20916;-78
2022/03/16 03:01:03;;;;;;;396.77;57.60;;;7.80;99.90;;;6.76;99.21;98038.38;4993562;28;20438;-78
2022/03/16 03:03:29;;;;;;;416.50;57.80;;;7.80;99.90;;;6.76;99.23;98040.19;5009719;28;20468;-78
2022/03/16 03:05:55;;;;;;;407.58;57.47;;;7.80;99.90;;;6.75;99.20;98031.50;5009849;28;20414;-78
2022/03/16 03:08:21;;;;;;;437.65;58.60;;;7.80;99.90;;;6.77;99.22;98033.91;4994208;28;20787;-79
2022/03/16 03:10:48;;;;;;;407.55;60.45;;;7.80;99.90;;;6.75;99.29;98039.38;5003839;28;20424;-79
2022/03/16 03:13:14;;;;;;;428.60;59.63;;;7.80;99.90;;;6.73;99.33;98040.59;5011748;28;20492;-79
2022/03/16 03:15:42;;;;;;;434.80;57.90;;;7.80;99.90;;;6.73;99.33;98043.25;5012734;28;20409;-78
2022/03/16 03:18:08;;;;;;;432.90;59.60;;;7.80;99.90;;;6.73;99.20;98038.78;5012809;28;20834;-78
2022/03/16 03:20:34;;;;;;;424.17;56.33;;;7.80;99.90;;;6.72;99.30;98039.81;5012060;28;20467;-78
2022/03/16 03:23:00;;;;;;;418.98;55.83;;;7.80;99.90;;;6.72;99.31;98045.06;5000054;28;20422;-78
2022/03/16 03:25:26;;;;;;;409.73;58.53;;;7.80;99.90;;;6.71;99.38;98046.06;4993908;28;20419;-79
2022/03/16 03:27:52;;;;;;;386.00;55.92;;;7.80;99.90;;;6.70;99.29;98046.28;4994068;28;20417;-78
2022/03/16 03:30:18;;;;;;;395.85;53.20;;;7.80;99.90;;;6.69;99.39;98042.06;4993353;28;20453;-79
2022/03/16 03:32:45;;;;;;;400.73;55.83;;;7.80;99.90;;;6.71;99.46;98050.53;5003670;28;20413;-78
2022/03/16 03:35:11;;;;;;;407.45;55.67;;;7.80;99.90;;;6.69;99.49;98050.72;5013544;28;20425;-78
2022/03/16 03:37:37;;;;;;;405.33;54.72;;;7.80;99.90;;;6.70;99.35;98051.53;5013208;28;20427;-78
2022/03/16 03:40:05;;;;;;;401.65;54.05;;;7.70;99.90;;;6.70;99.55;98051.53;5014331;28;20409;-77
2022/03/16 03:42:31;;;;;;;394.50;54.20;;;7.80;99.90;;;6.71;99.29;98053.16;5013075;28;20464;-77
2022/03/16 03:44:58;;;;;;;407.23;58.78;;;7.80;99.90;;;6.71;99.47;98053.16;5012971;28;20419;-78
2022/03/16 03:47:23;;;;;;;413.55;58.08;;;7.80;99.90;;;6.69;99.43;98048.09;5013119;28;20488;-79
2022/03/16 03:49:51;;;;;;;433.60;57.83;;;7.80;99.90;;;6.68;99.58;98048.34;5012849;28;20420;-78
2022/03/16 03:52:17;;;;;;;411.42;59.95;;;7.70;99.90;;;6.68;99.54;98058.84;5006676;28;20407;-79
2022/03/16 03:54:42;;;;;;;406.27;58.08;;;7.70;99.90;;;6.67;99.47;98051.97;4994580;28;20441;-78
2022/03/16 03:57:08;;;;;;;389.42;57.38;;;7.70;99.90;;;6.65;99.42;98059.25;4994874;28;20927;-79
2022/03/16 03:59:34;;;;;;;410.07;57.40;;;7.70;99.90;;;6.63;99.52;98059.47;5010365;28;20931;-79
2022/03/16 04:02:00;;;;;;;458.05;63.70;;;7.70;99.90;;;6.60;99.50;98055.44;5008928;28;20438;-79
2022/03/16 04:04:26;;;;;;;440.00;60.75;;;7.70;99.90;;;6.61;99.72;98059.66;5003814;28;20414;-78
2022/03/16 04:06:53;;;;;;;421.83;58.72;;;7.70;99.90;;;6.61;99.52;98053.63;5010781;28;20410;-78
2022/03/16 04:09:19;;;;;;;399.50;55.28;;;7.70;99.90;;;6.63;99.55;98053.41;4993938;28;20423;-78
2022/03/16 04:11:45;;;;;;;414.42;54.72;;;7.70;99.90;;;6.64;99.52;98057.66;5002750;28;20468;-77
2022/03/16 04:14:11;;;;;;;381.45;52.85;;;7.70;99.90;;;6.62;99.54;98052.59;5019302;28;20459;-78
2022/03/16 04:16:37;;;;;;;379.70;52.90;;;7.70;99.90;;;6.62;99.70;98055.22;5011930;28;20417;-78
2022/03/16 04:19:03;;;;;;;393.48;53.00;;;7.70;99.90;;;6.62;99.57;98055.22;5011702;28;20413;-77
2022/03/16 04:21:29;;;;;;;413.17;54.50;;;7.70;99.90;;;6.63;99.57;98059.47;5011167;28;20423;-78
2022/03/16 04:23:57;;;;;;;383.00;50.83;;;7.70;99.90;;;6.65;99.56;98059.25;5011847;28;20416;-77
2022/03/16 04:26:23;;;;;;;416.52;53.60;;;7.70;99.90;;;6.67;99.54;98071.19;5003439;28;20861;-79
2022/03/16 04:28:49;;;;;;;408.83;53.03;;;7.70;99.90;;;6.68;99.71;98064.94;5002645;28;20441;-78
2022/03/16 04:31:15;;;;;;;426.67;55.28;;;7.80;99.90;;;6.69;99.71;98066.50;5011105;28;20862;-77
2022/03/16 04:33:41;;;;;;;403.17;54.10;;;7.80;99.90;;;6.70;99.51;98062.06;5008794;28;20868;-78
2022/03/16 04:36:07;;;;;;;414.02;52.97;;;7.80;99.90;;;6.70;99.37;98052.34;4992088;28;20553;-78
2022/03/16 04:38:33;;;;;;;420.70;54.08;;;7.80;99.90;;;6.71;99.57;98053.16;5000052;28;20413;-78
2022/03/16 04:41:01;;;;;;;417.55;54.13;;;7.80;99.90;;;6.71;99.71;98053.16;5010868;28;20419;-79
2022/03/16 04:43:27;;;;;;;420.85;55.75;;;7.80;99.90;;;6.71;99.70;98058.41;5011394;28;20515;-78
2022/03/16 04:45:53;;;;;;;473.85;61.28;;;7.80;99.90;;;6.71;99.72;98055.78;4992187;28;20414;-78
2022/03/16 04:48:19;;;;;;;457.02;58.78;;;7.80;99.90;;;6.71;99.59;98067.13;4998174;28;20415;-78
2022/03/16 04:50:44;;;;;;;473.37;57.10;;;7.80;99.90;;;6.71;99.64;98068.94;5010680;28;20405;-78
2022/03/16 04:53:10;;;;;;;442.88;55.70;;;7.80;99.90;;;6.69;99.83;98065.72;5011237;28;20451;-78
2022/03/16 04:55:36;;;;;;;452.23;56.20;;;7.70;99.90;;;6.69;99.74;98056.00;5009079;28;20409;-78
2022/03/16 04:58:04;;;;;;;480.30;59.88;;;7.80;99.90;;;6.68;99.77;98061.47;5011093;28;20416;-78
2022/03/16 05:00:30;;;;;;;477.63;62.53;;;7.80;99.90;;;6.67;99.74;98062.50;5010468;28;20415;-78
2022/03/16 05:02:56;;;;;;;471.73;60.83;;;7.80;99.90;;;6.65;99.78;98060.06;5007486;28;20410;-78
2022/03/16 05:05:22;;;;;;;488.52;63.83;;;7.70;99.90;;;6.64;99.93;98062.91;4998517;28;20449;-78
2022/03/16 05:07:48;;;;;;;488.30;64.05;;;7.70;99.90;;;6.64;99.84;98066.34;4991579;28;20420;-78
2022/03/16 05:10:14;;;;;;;453.52;60.97;;;7.70;99.90;;;6.64;99.88;98060.28;4996612;28;20408;-78
2022/03/16 05:12:42;;;;;;;494.17;67.13;;;7.70;99.90;;;6.63;99.63;98067.34;5010951;28;20409;-78
2022/03/16 05:15:13;;;;;;;487.38;65.68;;;7.70;99.90;;;6.62;100.00;98065.75;5004918;28;20540;-78
2022/03/16 05:17:39;;;;;;;459.88;63.13;;;7.70;99.90;;;6.61;99.88;98070.19;4992378;28;21084;-77
2022/03/16 05:20:07;;;;;;;458.02;61.30;;;7.70;99.90;;;6.61;99.98;98067.56;5010262;28;20423;-77
2022/03/16 05:22:41;;;;;;;459.90;60.30;;;7.70;99.90;;;6.61;99.92;98064.16;5002087;28;20430;-77
2022/03/16 05:25:08;;;;;;;458.10;59.85;;;7.70;99.90;;;6.60;100.00;98065.97;5002597;28;20455;-77
2022/03/16 05:27:34;;;;;;;468.08;61.70;;;7.70;99.90;;;6.61;100.00;98066.78;5019675;28;20405;-77
2022/03/16 05:30:00;;;;;;;467.33;62.17;;;7.70;99.90;;;6.61;99.92;98078.06;5000466;28;20778;-79
2022/03/16 05:32:33;;;;;;;487.60;62.72;;;7.70;99.90;;;6.61;99.98;98074.66;5004273;28;20413;-78
2022/03/16 05:34:59;;;;;;;468.58;59.80;;;7.70;99.90;;;6.61;99.99;98088.59;4992807;28;20436;-77
2022/03/16 05:37:25;;;;;;;486.63;62.40;;;7.70;99.90;;;6.61;99.96;98085.19;4991863;28;20916;-78
2022/03/16 05:39:52;;;;;;;440.42;59.75;;;7.70;99.90;;;6.61;100.00;98096.50;4991164;28;20414;-77
2022/03/16 05:42:19;;;;;;;495.02;67.97;;;7.70;99.90;;;6.61;100.00;98091.22;4990489;28;20754;-77
2022/03/16 05:44:45;;;;;;;512.50;67.20;;;7.70;99.90;;;6.61;100.00;98090.44;4992387;28;20571;-77
2022/03/16 05:47:11;;;;;;;471.77;59.67;;;7.70;99.90;;;6.61;100.00;98093.88;4995642;28;20410;-77
2022/03/16 05:49:39;;;;;;;477.85;60.80;;;7.70;99.90;;;6.62;100.00;98094.66;4989084;28;20900;-79
2022/03/16 05:52:06;;;;;;;462.77;59.42;;;7.70;99.90;;;6.63;100.00;98092.84;4985956;28;20418;-77
2022/03/16 05:54:32;;;;;;;549.83;81.68;;;7.70;99.90;;;6.65;100.00;98096.09;4989511;28;20522;-75
2022/03/16 05:56:58;;;;;;;485.33;64.60;;;7.70;99.90;;;6.65;100.00;98090.81;4989070;28;20457;-77
2022/03/16 05:59:24;;;;;;;467.63;65.68;;;7.70;99.90;;;6.66;100.00;98101.16;4986041;28;20418;-77
2022/03/16 06:01:51;;;;;;;450.77;60.97;;;7.70;99.90;;;6.67;100.00;98101.97;4989155;28;20417;-78
2022/03/16 06:04:17;;;;;;;445.92;60.53;;;7.70;99.90;;;6.68;100.00;98100.94;4981642;28;20410;-74
2022/03/16 06:06:44;;;;;;;447.08;60.58;;;7.70;99.90;;;6.70;100.00;98101.53;4990884;28;20402;-77
2022/03/16 06:09:10;;;;;;;501.85;70.32;;;7.80;99.90;;;6.71;100.00;98093.44;4990338;28;20876;-76
2022/03/16 06:11:39;;;;;;;459.90;62.60;;;7.70;99.90;;;6.71;100.00;98095.25;4989796;28;20468;-77
2022/03/16 06:14:05;;;;;;;459.73;61.63;;;7.80;99.90;;;6.72;100.00;98095.03;4988883;28;20446;-77
2022/03/16 06:16:30;;;;;;;450.33;60.33;;;7.80;99.90;;;6.74;100.00;98102.75;4989653;28;20464;-78
2022/03/16 06:18:56;;;;;;;477.50;64.40;;;7.80;99.90;;;6.75;100.00;98107.81;4990531;28;20413;-78
2022/03/16 06:21:22;;;;;;;467.13;69.47;;;7.80;99.90;;;6.77;100.00;98105.75;5008808;23;20431;-76
2022/03/16 06:23:49;;;;;;;450.90;61.00;;;7.80;99.90;;;6.77;100.00;98107.56;5010596;28;20408;-77
2022/03/16 06:26:16;;;;;;;436.50;60.60;;;7.80;99.90;;;6.79;100.00;98114.25;5010530;28;20405;-77
2022/03/16 06:28:41;;;;;;;449.70;59.05;;;7.80;99.90;;;6.80;100.00;98110.59;5010022;28;20427;-77
2022/03/16 06:31:08;;;;;;;436.00;58.00;;;7.80;99.90;;;6.82;100.00;98121.72;5009672;28;20972;-77
2022/03/16 06:33:34;;;;;;;434.67;62.23;;;7.90;99.90;;;6.83;100.00;98114.66;5010859;28;20488;-77
2022/03/16 06:36:00;;;;;;;529.78;80.45;;;7.90;99.90;;;6.84;100.00;98124.16;5011928;28;20807;-77
2022/03/16 06:38:26;;;;;;;494.10;71.20;;;7.90;99.90;;;6.84;100.00;98122.31;5010108;28;20457;-77
2022/03/16 06:40:53;;;;;;;481.77;66.90;;;7.90;99.90;;;6.84;100.00;98119.69;5010187;28;20490;-77
2022/03/16 06:43:21;;;;;;;473.23;67.13;;;7.90;99.90;;;6.86;100.00;98122.09;5011750;28;20401;-77
2022/03/16 06:45:47;;;;;;;419.27;62.13;;;7.90;99.90;;;6.87;100.00;98116.63;5011134;28;20790;-77
2022/03/16 06:48:13;;;;;;;456.92;64.00;;;7.90;99.90;;;6.88;100.00;98115.63;5010979;28;20401;-77
2022/03/16 06:50:39;;;;;;;465.63;65.22;;;8.00;99.90;;;6.88;100.00;98120.88;5010513;28;20405;-76
2022/03/16 06:53:05;;;;;;;442.47;60.87;;;7.90;99.90;;;6.92;100.00;98129.16;5010781;28;20416;-76
2022/03/16 06:55:31;;;;;;;475.20;64.68;;;8.00;99.90;;;6.93;100.00;98136.84;5006599;28;20424;-76
2022/03/16 06:57:58;;;;;;;439.83;59.55;;;8.00;99.90;;;6.95;100.00;98134.81;5006235;28;20756;-77
2022/03/16 07:00:24;;;;;;;446.45;61.78;;;8.00;99.90;;;6.98;100.00;98125.72;5004558;28;20447;-78
2022/03/16 07:02:53;;;;;;;441.35;58.95;;;8.00;99.90;;;7.02;100.00;98133.97;5001885;28;20417;-76
2022/03/16 07:05:20;;;;;;;408.75;55.47;;;8.10;99.90;;;7.04;100.00;98131.97;5003965;28;20784;-77
2022/03/16 07:07:46;;;;;;;443.73;63.63;;;8.10;99.90;;;7.06;100.00;98132.56;5003806;28;20405;-77
2022/03/16 07:10:12;;;;;;;436.77;59.25;;;8.10;99.90;;;7.08;100.00;98128.69;5004569;28;21441;-78
2022/03/16 07:12:38;;;;;;;422.95;58.17;;;8.20;99.90;;;7.11;100.00;98133.53;5004769;28;20472;-78
2022/03/16 07:15:07;;;;;;;399.88;58.10;;;8.10;99.90;;;7.13;100.00;98133.34;5017485;28;20411;-78
2022/03/16 07:17:33;;;;;;;530.70;86.77;;;8.20;99.90;;;7.12;100.00;98137.78;5002339;28;20453;-76
2022/03/16 07:19:59;;;;;;;491.17;70.32;;;8.20;99.90;;;7.13;100.00;98139.41;5007062;28;20424;-80
2022/03/16 07:22:25;;;;;;;511.70;77.50;;;8.20;99.90;;;7.14;100.00;98138.38;5012051;28;20418;-79
2022/03/16 07:24:50;;;;;;;435.13;61.27;;;8.20;99.90;;;7.17;100.00;98135.31;5002423;28;20498;-80
2022/03/16 07:27:16;;;;;;;447.15;66.65;;;8.20;99.90;;;7.22;100.00;98142.59;5001878;28;20407;-78
2022/03/16 07:29:44;;;;;;;421.27;61.38;;;8.20;99.90;;;7.25;100.00;98142.97;5003100;28;20405;-77
2022/03/16 07:32:12;;;;;;;421.73;63.33;;;8.30;99.90;;;7.28;100.00;98141.75;5011942;28;20408;-79
2022/03/16 07:34:38;;;;;;;568.30;93.67;;;8.30;99.90;;;7.18;100.00;98150.13;5007867;28;20401;-80
2022/03/16 07:37:05;;;;;;;472.07;67.10;;;8.20;99.90;;;7.22;100.00;98146.03;5012237;28;20511;-79
2022/03/16 07:39:31;;;;;;;435.75;63.30;;;8.20;99.90;;;7.25;100.00;98153.50;5013122;28;20443;-79
2022/03/16 07:41:57;;;;;;;394.07;56.83;;;8.30;99.90;;;7.27;100.00;98154.13;5012207;28;20399;-79
2022/03/16 07:44:22;;;;;;;398.60;53.65;;;8.30;99.90;;;7.32;100.00;98161.38;5026021;28;20403;-78
2022/03/16 07:46:48;;;;;;;366.23;50.78;;;8.30;99.90;;;7.33;100.00;98163.81;5014079;28;20448;-79
2022/03/16 07:49:16;;;;;;;350.17;50.60;;;8.40;99.90;;;7.34;100.00;98164.63;5013734;28;20421;-77
2022/03/16 07:51:42;;;;;;;378.92;52.45;;;8.40;99.90;;;7.32;100.00;98167.44;5010443;28;20412;-78
2022/03/16 07:54:07;;;;;;;370.83;50.55;;;8.40;99.90;;;7.32;100.00;98166.66;5011766;28;20524;-75
2022/03/16 07:56:33;;;;;;;410.88;62.67;;;8.30;99.90;;;7.30;100.00;98172.13;5011503;28;20514;-78
2022/03/16 07:59:01;;;;;;;385.23;55.03;;;8.30;99.90;;;7.29;100.00;98165.22;5007088;28;20428;-73
2022/03/16 08:01:27;;;;;;;395.00;53.70;;;8.30;99.90;;;7.30;100.00;98166.84;5009102;28;20508;-74
2022/03/16 08:03:53;;;;;;;362.95;49.28;;;8.30;99.90;;;7.31;100.00;98163.19;5012758;28;20463;-74
2022/03/16 08:06:21;;;;;;;334.92;49.28;;;8.40;99.90;;;7.34;100.00;98172.50;5011246;28;20425;-75
2022/03/16 08:08:47;;;;;;;334.63;49.60;;;8.40;99.90;;;7.35;100.00;98171.50;5011505;28;20416;-75
2022/03/16 08:11:13;;;;;;;339.25;49.15;;;8.40;99.90;;;7.36;100.00;98170.50;5020596;28;20411;-75
2022/03/16 08:13:38;;;;;;;379.75;55.75;;;8.40;99.90;;;7.35;100.00;98167.03;5017351;28;20472;-75
2022/03/16 08:16:05;;;;;;;346.75;52.72;;;8.40;99.90;;;7.35;100.00;98167.03;5011070;28;20932;-76
2022/03/16 08:18:31;;;;;;;333.43;51.73;;;8.40;99.90;;;7.35;100.00;98174.13;5021351;28;20457;-76
2022/03/16 08:20:57;;;;;;;335.20;49.80;;;8.40;99.90;;;7.35;100.00;98180.22;5008522;28;20425;-75
2022/03/16 08:23:25;;;;;;;344.50;53.73;;;8.40;99.90;;;7.35;100.00;98174.13;5009774;28;20420;-76
2022/03/16 08:25:50;;;;;;;342.15;50.00;;;8.40;99.90;;;7.36;100.00;98152.06;4994752;28;20415;-75
2022/03/16 08:28:16;;;;;;;316.57;50.53;;;8.40;99.90;;;7.38;100.00;98163.97;5009499;28;20417;-75
2022/03/16 08:30:42;;;;;;;308.33;48.55;;;8.40;99.90;;;7.41;100.00;98165.38;5010667;28;20439;-76
2022/03/16 08:33:08;;;;;;;325.58;51.85;;;8.40;99.90;;;7.45;100.00;98166.56;5010446;28;20436;-75
2022/03/16 08:35:34;;;;;;;429.73;77.67;;;8.50;99.90;;;7.41;100.00;98164.56;5026759;28;20432;-75
2022/03/16 08:38:00;;;;;;;323.88;54.22;;;8.40;99.90;;;7.45;100.00;98169.19;5011464;28;20416;-76
2022/03/16 08:40:27;;;;;;;287.17;49.50;;;8.50;99.90;;;7.52;100.00;98166.53;5011105;28;20452;-75
2022/03/16 08:42:54;;;;;;;244.30;44.03;;;8.50;99.90;;;7.59;100.00;98167.31;5010134;28;20491;-75
2022/03/16 08:45:20;;;;;;;341.33;56.17;;;8.60;99.90;;;7.63;100.00;98165.84;5006461;28;20416;-75
2022/03/16 08:47:46;;;;;;;267.30;47.20;;;8.60;99.90;;;7.68;100.00;98163.38;5011033;28;20413;-75
2022/03/16 08:50:12;;;;;;;245.25;44.40;;;8.70;99.90;;;7.72;100.00;98162.75;5009224;28;20424;-74
2022/03/16 08:52:38;;;;;;;247.10;44.83;;;8.70;99.90;;;7.78;100.00;98163.72;5010713;28;20451;-75
2022/03/16 08:55:05;;;;;;;283.45;54.40;;;8.80;99.90;;;7.77;100.00;98157.66;4997918;28;20411;-75
2022/03/16 08:57:33;;;;;;;252.30;46.28;;;8.80;99.90;;;7.84;100.00;98156.78;5010359;28;20455;-75
2022/03/16 08:59:59;;;;;;;238.10;45.15;;;8.80;99.90;;;7.90;100.00;98156.72;5009529;28;20639;-75
2022/03/16 09:02:26;;;;;;;253.57;45.78;;;8.90;99.90;;;7.97;100.00;98157.47;5008161;28;20821;-74
2022/03/16 09:04:52;;;;;;;219.15;40.95;;;8.90;99.90;;;8.05;100.00;98151.13;5009532;28;20421;-75
2022/03/16 09:07:18;;;;;;;200.93;39.08;;;9.00;99.90;;;8.11;100.00;98152.94;5010531;28;20419;-75
2022/03/16 09:09:44;;;;;;;204.43;41.63;;;9.10;99.90;;;8.18;100.00;98161.59;5011026;28;20760;-76
2022/03/16 09:12:11;;;;;;;202.80;40.40;;;9.10;99.90;;;8.24;100.00;98157.28;5011002;28;20420;-76
2022/03/16 09:14:39;;;;;;;222.50;42.50;;;9.20;99.90;;;8.31;100.00;98161.50;5011496;28;20412;-77
2022/03/16 09:17:06;;;;;;;192.97;38.93;;;9.30;99.90;;;8.37;100.00;98157.16;5011598;28;20450;-76
2022/03/16 09:19:33;;;;;;;231.77;44.03;;;9.30;99.90;;;8.38;100.00;98153.50;5009357;28;20408;-75
2022/03/16 09:22:00;;;;;;;183.68;38.50;;;9.30;99.90;;;8.39;100.00;98158.56;5008019;28;20455;-75
2022/03/16 09:24:26;;;;;;;203.10;42.55;;;9.40;99.90;;;8.39;100.00;98144.56;5011061;28;20488;-75
2022/03/16 09:26:54;;;;;;;186.18;39.58;;;9.40;99.90;;;8.42;100.00;98146.78;5011351;28;20454;-76
2022/03/16 09:29:20;;;;;;;169.93;36.83;;;9.40;99.90;;;8.48;100.00;98140.63;5010845;28;20479;-76
2022/03/16 09:31:47;;;;;;;192.63;37.58;;;9.50;99.90;;;8.54;100.00;98145.84;5010239;28;20413;-75
2022/03/16 09:34:13;;;;;;;209.40;42.40;;;9.50;99.90;;;8.58;100.00;98146.19;5014110;28;20455;-76
2022/03/16 09:36:42;;;;;;;170.53;37.07;;;9.60;99.90;;;8.64;100.00;98155.91;5015976;28;20404;-74
2022/03/16 09:39:08;;;;;;;167.15;36.80;;;9.60;99.90;;;8.66;100.00;98150.38;5000000;28;20930;-75
2022/03/16 09:41:36;;;;;;;209.50;43.63;;;9.60;99.90;;;8.65;100.00;98154.03;5011375;28;20937;-75
2022/03/16 09:44:04;;;;;;;183.05;38.95;;;9.60;99.90;;;8.66;100.00;98148.53;5008764;28;20481;-76
2022/03/16 09:46:32;;;;;;;164.32;36.00;;;9.60;99.90;;;8.68;100.00;98149.13;5004922;28;20420;-76
2022/03/16 09:49:01;;;;;;;241.60;48.25;;;9.60;99.90;;;8.66;100.00;98155.66;5006726;28;20503;-75
2022/03/16 09:51:29;;;;;;;187.43;38.90;;;9.60;99.90;;;8.69;100.00;98153.41;5009961;28;20969;-76
2022/03/16 09:53:55;;;;;;;188.97;40.03;;;9.70;99.90;;;8.72;100.00;98150.28;5010377;28;20480;-75
2022/03/16 09:56:21;;;;;;;181.43;40.35;;;9.70;99.90;;;8.75;100.00;98157.78;5010650;28;20800;-74
2022/03/16 09:58:47;;;;;;;205.68;43.58;;;9.70;99.90;;;8.74;100.00;98148.25;5010665;28;20416;-74
2022/03/16 10:01:13;;;;;;;177.15;38.92;;;9.70;99.90;;;8.78;100.00;98144.16;5006840;28;20421;-74
2022/03/16 10:03:40;;;;;;;185.10;37.80;;;9.70;99.90;;;8.87;100.00;98144.66;5009964;28;20492;-76
2022/03/16 10:06:08;;;;;;;180.10;39.77;;;9.80;99.90;;;8.99;100.00;98140.25;5027883;28;20417;-77